createdAt,value
2017-12-29T00:00:58.486Z,6.12
2017-12-29T00:03:31.006Z,6.25
2017-12-29T00:06:03.487Z,6.46
2017-12-29T00:08:36.018Z,6.40
2017-12-29T00:11:08.522Z,6.49
2017-12-29T00:13:41.032Z,6.40
2017-12-29T00:16:13.538Z,6.15
2017-12-29T00:18:46.041Z,6.50
2017-12-29T00:21:18.539Z,6.62
2017-12-29T00:23:51.092Z,6.23
2017-12-29T00:26:23.582Z,6.28
2017-12-29T00:28:56.087Z,6.49
2017-12-29T00:31:28.589Z,6.20
2017-12-29T00:34:01.094Z,6.28
2017-12-29T00:36:33.588Z,6.19
2017-12-29T00:39:06.114Z,6.35
2017-12-29T00:41:38.622Z,6.23
2017-12-29T00:44:11.142Z,6.24
2017-12-29T00:46:43.634Z,6.40
2017-12-29T00:49:16.167Z,6.41
2017-12-29T00:51:48.684Z,6.25
2017-12-29T00:54:21.204Z,6.40
2017-12-29T00:56:53.697Z,6.41
2017-12-29T00:59:26.206Z,6.46
2017-12-29T01:01:58.726Z,6.56
2017-12-29T01:04:31.255Z,6.61
2017-12-29T01:07:03.755Z,6.46
2017-12-29T01:09:36.268Z,6.63
2017-12-29T01:12:08.754Z,6.77
2017-12-29T01:14:41.259Z,6.54
2017-12-29T01:17:13.747Z,6.32
2017-12-29T01:19:46.265Z,6.40
2017-12-29T01:22:18.791Z,6.60
2017-12-29T01:24:51.315Z,6.75
2017-12-29T01:27:23.798Z,6.32
2017-12-29T01:29:56.303Z,6.51
2017-12-29T01:32:28.799Z,6.71
2017-12-29T01:35:01.302Z,6.73
2017-12-29T01:37:33.797Z,6.18
2017-12-29T01:40:06.345Z,6.62
2017-12-29T01:42:38.832Z,6.41
2017-12-29T01:45:11.932Z,6.47
2017-12-29T01:48:00.258Z,6.55
2017-12-29T01:50:32.779Z,6.66
2017-12-29T01:53:05.294Z,6.39
2017-12-29T01:55:37.809Z,6.57
2017-12-29T01:58:10.308Z,6.56
2017-12-29T02:00:43.749Z,6.12
2017-12-29T02:03:16.246Z,6.12
2017-12-29T02:05:48.768Z,6.36
2017-12-29T02:08:21.279Z,6.10
2017-12-29T02:10:53.799Z,6.23
2017-12-29T02:13:26.294Z,6.40
2017-12-29T02:15:58.808Z,6.26
2017-12-29T02:18:31.299Z,6.28
2017-12-29T02:21:03.817Z,6.48
2017-12-29T02:23:36.321Z,6.58
2017-12-29T02:26:08.836Z,6.73
2017-12-29T02:28:42.322Z,6.51
2017-12-29T02:31:14.840Z,6.41
2017-12-29T02:33:47.334Z,6.30
2017-12-29T02:36:19.844Z,6.16
2017-12-29T02:38:52.403Z,5.97
2017-12-29T02:41:24.909Z,6.25
2017-12-29T02:43:57.411Z,6.08
2017-12-29T02:46:29.916Z,6.32
2017-12-29T02:49:03.254Z,6.31
2017-12-29T02:51:35.756Z,6.45
2017-12-29T02:54:08.263Z,6.44
2017-12-29T02:56:40.804Z,6.46
2017-12-29T02:59:13.312Z,6.37
2017-12-29T03:01:45.837Z,6.36
2017-12-29T03:04:18.348Z,6.62
2017-12-29T03:06:50.875Z,6.62
2017-12-29T03:09:23.371Z,6.44
2017-12-29T03:11:55.887Z,6.43
2017-12-29T03:14:28.398Z,6.42
2017-12-29T03:17:01.668Z,6.54
2017-12-29T03:19:34.160Z,6.44
2017-12-29T03:22:06.704Z,6.61
2017-12-29T03:24:39.190Z,6.61
2017-12-29T03:27:11.702Z,6.62
2017-12-29T03:29:44.265Z,6.50
2017-12-29T03:32:16.781Z,6.64
2017-12-29T03:34:49.280Z,6.77
2017-12-29T03:37:21.813Z,6.66
2017-12-29T03:39:54.317Z,6.50
2017-12-29T03:42:26.839Z,6.51
2017-12-29T03:44:59.394Z,6.59
2017-12-29T03:47:32.435Z,6.74
2017-12-29T03:50:04.949Z,6.83
2017-12-29T03:52:37.447Z,6.71
2017-12-29T03:55:09.923Z,6.71
2017-12-29T03:57:42.422Z,6.57
2017-12-29T04:00:14.947Z,6.45
2017-12-29T04:02:47.483Z,6.49
2017-12-29T04:05:19.986Z,6.50
2017-12-29T04:07:52.536Z,6.41
2017-12-29T04:10:25.036Z,6.36
2017-12-29T04:12:57.560Z,6.31
2017-12-29T04:15:30.053Z,6.34
2017-12-29T04:18:03.422Z,6.48
2017-12-29T04:20:35.917Z,6.50
2017-12-29T04:23:08.455Z,6.70
2017-12-29T04:25:40.955Z,6.47
2017-12-29T04:28:13.464Z,6.35
2017-12-29T04:30:45.951Z,6.60
2017-12-29T04:33:18.475Z,6.57
2017-12-29T04:35:50.965Z,6.55
2017-12-29T04:38:23.489Z,6.36
2017-12-29T04:40:55.974Z,6.36
2017-12-29T04:43:28.491Z,6.61
2017-12-29T04:46:01.635Z,6.59
2017-12-29T04:48:34.152Z,6.24
2017-12-29T04:51:06.655Z,6.61
2017-12-29T04:53:39.172Z,6.64
2017-12-29T04:56:11.666Z,6.37
2017-12-29T04:58:44.199Z,6.21
2017-12-29T05:01:17.659Z,6.43
2017-12-29T05:03:50.186Z,6.62
2017-12-29T05:06:22.691Z,6.72
2017-12-29T05:08:55.215Z,6.74
2017-12-29T05:11:27.719Z,6.78
2017-12-29T05:14:00.227Z,6.66
2017-12-29T05:16:33.454Z,6.47
2017-12-29T05:19:05.978Z,6.45
2017-12-29T05:21:38.468Z,6.24
2017-12-29T05:24:10.979Z,6.41
2017-12-29T05:26:43.470Z,6.44
2017-12-29T05:29:16.000Z,6.66
2017-12-29T05:31:52.006Z,6.44
2017-12-29T05:34:24.520Z,6.43
2017-12-29T05:36:57.024Z,6.51
2017-12-29T05:39:29.552Z,6.27
2017-12-29T05:42:02.852Z,6.41
2017-12-29T05:44:35.382Z,6.58
2017-12-29T05:47:07.879Z,6.55
2017-12-29T05:49:40.385Z,6.54
2017-12-29T05:52:12.871Z,6.68
2017-12-29T05:57:25.262Z,6.83
2017-12-29T05:59:57.798Z,6.65
2017-12-29T06:02:30.304Z,6.64
2017-12-29T06:05:02.838Z,6.44
2017-12-29T06:07:35.335Z,6.53
2017-12-29T06:10:08.925Z,5.95
2017-12-29T06:12:41.432Z,6.15
2017-12-29T06:15:13.957Z,6.44
2017-12-29T06:17:46.472Z,6.29
2017-12-29T06:20:19.007Z,6.26
2017-12-29T06:22:51.480Z,6.24
2017-12-29T06:25:24.025Z,6.28
2017-12-29T06:27:56.535Z,6.44
2017-12-29T06:30:29.094Z,6.29
2017-12-29T06:33:01.939Z,6.60
2017-12-29T06:35:34.451Z,6.33
2017-12-29T06:38:06.954Z,6.33
2017-12-29T06:40:39.457Z,5.97
2017-12-29T06:43:11.955Z,6.36
2017-12-29T06:45:44.483Z,6.43
2017-12-29T06:48:16.986Z,6.03
2017-12-29T06:50:49.505Z,5.30
2017-12-29T06:53:22.006Z,5.99
2017-12-29T06:55:54.710Z,6.01
2017-12-29T06:58:27.200Z,5.91
2017-12-29T07:00:59.765Z,6.09
2017-12-29T07:03:33.073Z,6.25
2017-12-29T07:06:05.632Z,6.48
2017-12-29T07:08:38.103Z,6.50
2017-12-29T07:11:10.622Z,6.53
2017-12-29T07:13:43.120Z,6.49
2017-12-29T07:16:15.690Z,6.25
2017-12-29T07:18:48.184Z,6.42
2017-12-29T07:21:20.724Z,6.23
2017-12-29T07:23:53.259Z,6.35
2017-12-29T07:26:25.770Z,6.25
2017-12-29T07:28:58.268Z,6.32
2017-12-29T07:31:30.789Z,6.40
2017-12-29T07:34:03.281Z,6.43
2017-12-29T07:36:35.828Z,6.34
2017-12-29T07:39:08.329Z,6.44
2017-12-29T07:41:40.846Z,6.23
2017-12-29T07:44:13.344Z,6.32
2017-12-29T07:46:45.865Z,6.15
2017-12-29T07:49:18.362Z,5.92
2017-12-29T07:51:50.869Z,6.26
2017-12-29T07:54:23.383Z,6.38
2017-12-29T07:56:55.883Z,6.13
2017-12-29T07:59:28.379Z,6.43
2017-12-29T08:02:00.921Z,6.49
2017-12-29T08:04:33.418Z,6.43
2017-12-29T08:07:05.955Z,5.83
2017-12-29T08:09:38.479Z,6.09
2017-12-29T08:12:10.997Z,6.02
2017-12-29T08:14:43.482Z,6.19
2017-12-29T08:17:15.995Z,6.14
2017-12-29T08:19:48.496Z,6.24
2017-12-29T08:22:21.008Z,6.16
2017-12-29T08:24:53.556Z,6.16
2017-12-29T08:27:26.064Z,5.99
2017-12-29T08:29:58.569Z,6.26
2017-12-29T08:32:31.813Z,6.36
2017-12-29T08:35:04.391Z,5.56
2017-12-29T08:37:36.907Z,5.94
2017-12-29T08:40:09.405Z,6.04
2017-12-29T08:42:41.946Z,6.38
2017-12-29T08:45:14.520Z,6.05
2017-12-29T08:47:47.032Z,6.20
2017-12-29T08:50:19.539Z,6.49
2017-12-29T08:52:52.059Z,6.06
2017-12-29T08:55:24.561Z,6.08
2017-12-29T08:57:57.202Z,6.06
2017-12-29T09:00:29.720Z,6.27
2017-12-29T09:03:02.916Z,6.31
2017-12-29T09:05:35.411Z,6.41
2017-12-29T09:08:07.935Z,6.56
2017-12-29T09:10:40.450Z,6.55
2017-12-29T09:13:12.983Z,6.62
2017-12-29T09:15:45.485Z,6.71
2017-12-29T09:18:18.006Z,6.90
2017-12-29T09:20:50.508Z,6.98
2017-12-29T09:23:23.044Z,6.91
2017-12-29T09:25:55.571Z,6.92
2017-12-29T09:28:28.097Z,6.90
2017-12-29T09:31:00.863Z,6.79
2017-12-29T09:33:33.385Z,6.85
2017-12-29T09:36:05.885Z,6.45
2017-12-29T09:38:38.395Z,6.70
2017-12-29T09:41:10.884Z,6.42
2017-12-29T09:43:43.421Z,6.19
2017-12-29T09:46:15.912Z,6.04
2017-12-29T09:48:48.432Z,6.30
2017-12-29T09:51:20.931Z,6.44
2017-12-29T09:53:53.441Z,6.31
2017-12-29T09:56:25.934Z,6.32
2017-12-29T09:58:58.447Z,6.12
2017-12-29T10:01:30.956Z,6.39
2017-12-29T10:04:04.492Z,6.20
2017-12-29T10:06:37.002Z,6.19
2017-12-29T10:09:10.131Z,6.35
2017-12-29T10:11:42.625Z,6.19
2017-12-29T10:14:15.140Z,6.56
2017-12-29T10:16:47.620Z,6.69
2017-12-29T10:19:20.125Z,6.91
2017-12-29T10:21:52.615Z,6.78
2017-12-29T10:24:25.116Z,6.24
2017-12-29T10:26:57.639Z,6.46
2017-12-29T10:29:30.167Z,6.53
2017-12-29T10:32:03.506Z,6.71
2017-12-29T10:34:36.033Z,6.83
2017-12-29T10:37:08.520Z,6.69
2017-12-29T10:39:41.049Z,6.59
2017-12-29T10:42:13.553Z,6.86
2017-12-29T10:44:46.080Z,7.03
2017-12-29T10:47:18.597Z,7.03
2017-12-29T10:49:51.112Z,7.27
2017-12-29T10:52:23.587Z,7.01
2017-12-29T10:54:56.119Z,7.08
2017-12-29T10:57:28.601Z,6.94
2017-12-29T11:00:01.675Z,7.07
2017-12-29T11:02:34.164Z,7.04
2017-12-29T11:05:07.527Z,6.83
2017-12-29T11:07:40.038Z,7.01
2017-12-29T11:10:12.580Z,7.21
2017-12-29T11:12:45.067Z,6.98
2017-12-29T11:15:17.581Z,7.16
2017-12-29T11:17:50.079Z,7.22
2017-12-29T11:20:22.598Z,7.41
2017-12-29T11:22:55.103Z,7.34
2017-12-29T11:25:27.619Z,7.42
2017-12-29T11:28:00.103Z,7.32
2017-12-29T11:30:33.179Z,7.20
2017-12-29T11:33:05.683Z,7.63
2017-12-29T11:35:38.198Z,7.62
2017-12-29T11:38:10.685Z,7.75
2017-12-29T11:40:43.196Z,7.68
2017-12-29T11:43:15.703Z,7.31
2017-12-29T11:45:48.188Z,7.63
2017-12-29T11:48:20.696Z,7.54
2017-12-29T11:50:53.187Z,7.69
2017-12-29T11:53:25.714Z,7.58
2017-12-29T11:55:58.242Z,7.68
2017-12-29T11:58:31.355Z,7.25
2017-12-29T12:01:03.854Z,7.36
2017-12-29T12:03:37.163Z,7.42
2017-12-29T12:06:09.631Z,7.46
2017-12-29T12:08:42.126Z,7.36
2017-12-29T12:11:14.620Z,7.41
2017-12-29T12:13:47.138Z,7.50
2017-12-29T12:16:19.621Z,7.43
2017-12-29T12:18:52.154Z,7.44
2017-12-29T12:21:24.630Z,7.28
2017-12-29T12:23:57.134Z,7.43
2017-12-29T12:26:29.611Z,7.25
2017-12-29T12:29:02.916Z,7.22
2017-12-29T12:31:35.404Z,7.36
2017-12-29T12:34:07.914Z,7.24
2017-12-29T12:36:40.420Z,7.18
2017-12-29T12:39:12.949Z,7.16
2017-12-29T12:41:45.448Z,7.22
2017-12-29T12:44:17.987Z,7.20
2017-12-29T12:46:50.482Z,7.11
2017-12-29T12:49:22.991Z,7.13
2017-12-29T12:51:55.468Z,7.18
2017-12-29T12:54:27.976Z,7.30
2017-12-29T12:57:00.458Z,7.46
2017-12-29T12:59:33.890Z,7.45
2017-12-29T13:02:06.367Z,7.51
2017-12-29T13:04:38.876Z,7.20
2017-12-29T13:07:11.370Z,7.36
2017-12-29T13:09:43.886Z,7.33
2017-12-29T13:12:16.414Z,6.79
2017-12-29T13:14:48.927Z,7.34
2017-12-29T13:17:21.409Z,7.31
2017-12-29T13:19:53.911Z,7.37
2017-12-29T13:22:26.401Z,7.49
2017-12-29T13:24:58.903Z,7.57
2017-12-29T13:27:31.430Z,7.38
2017-12-29T13:30:03.932Z,7.36
2017-12-29T13:32:36.420Z,7.61
2017-12-29T13:35:08.916Z,7.73
2017-12-29T13:37:41.402Z,7.74
2017-12-29T13:40:14.043Z,7.53
2017-12-29T13:42:46.561Z,7.56
2017-12-29T13:45:19.144Z,7.38
2017-12-29T13:47:51.611Z,7.41
2017-12-29T13:50:24.156Z,7.36
2017-12-29T13:52:56.643Z,7.42
2017-12-29T13:55:29.144Z,6.96
2017-12-29T13:58:02.115Z,7.39
2017-12-29T14:00:34.620Z,7.39
2017-12-29T14:03:07.101Z,7.37
2017-12-29T14:05:39.621Z,7.32
2017-12-29T14:08:12.132Z,7.22
2017-12-29T14:10:44.688Z,7.09
2017-12-29T14:13:17.186Z,6.78
2017-12-29T14:15:49.739Z,6.95
2017-12-29T14:18:22.230Z,6.97
2017-12-29T14:20:54.740Z,6.96
2017-12-29T14:23:27.223Z,6.93
2017-12-29T14:25:59.722Z,6.88
2017-12-29T14:28:33.016Z,6.66
2017-12-29T14:31:05.522Z,6.49
2017-12-29T14:33:38.016Z,6.50
2017-12-29T14:36:10.569Z,6.25
2017-12-29T14:38:43.062Z,6.30
2017-12-29T14:41:15.578Z,6.30
2017-12-29T14:43:48.072Z,6.30
2017-12-29T14:46:20.579Z,6.26
2017-12-29T14:48:53.055Z,6.27
2017-12-29T14:51:25.551Z,6.24
2017-12-29T14:53:58.031Z,6.31
2017-12-29T14:56:30.553Z,6.20
2017-12-29T14:59:03.183Z,6.14
2017-12-29T15:01:35.684Z,6.03
2017-12-29T15:04:08.162Z,5.93
2017-12-29T15:06:40.672Z,5.86
2017-12-29T15:09:13.147Z,5.84
2017-12-29T15:11:45.653Z,5.74
2017-12-29T15:14:18.178Z,5.69
2017-12-29T15:16:50.673Z,5.77
2017-12-29T15:19:23.152Z,5.86
2017-12-29T15:21:55.663Z,5.60
2017-12-29T15:24:28.166Z,5.62
2017-12-29T15:27:02.377Z,5.47
2017-12-29T15:29:34.985Z,5.46
2017-12-29T15:32:07.488Z,5.69
2017-12-29T15:34:39.998Z,5.67
2017-12-29T15:37:12.481Z,5.41
2017-12-29T15:39:44.979Z,5.54
2017-12-29T15:42:17.454Z,5.41
2017-12-29T15:44:49.953Z,5.58
2017-12-29T15:47:22.447Z,5.54
2017-12-29T15:49:54.995Z,5.62
2017-12-29T15:52:27.480Z,5.55
2017-12-29T15:55:00.026Z,5.57
2017-12-29T15:57:32.506Z,5.58
2017-12-29T16:00:05.020Z,5.61
2017-12-29T16:02:37.504Z,5.18
2017-12-29T16:05:10.021Z,5.33
2017-12-29T16:07:42.501Z,5.46
2017-12-29T16:10:15.125Z,5.44
2017-12-29T16:12:47.648Z,5.47
2017-12-29T16:15:20.153Z,5.66
2017-12-29T16:17:52.636Z,5.55
2017-12-29T16:20:25.139Z,5.49
2017-12-29T16:22:57.642Z,5.02
2017-12-29T16:25:30.167Z,5.48
2017-12-29T16:28:03.105Z,5.18
2017-12-29T16:30:35.622Z,5.35
2017-12-29T16:33:08.093Z,5.45
2017-12-29T16:35:40.612Z,5.10
2017-12-29T16:38:13.120Z,5.23
2017-12-29T16:40:45.674Z,5.27
2017-12-29T16:43:18.130Z,5.04
2017-12-29T16:45:51.683Z,5.24
2017-12-29T16:48:24.158Z,5.35
2017-12-29T16:50:56.696Z,4.87
2017-12-29T16:53:29.207Z,5.19
2017-12-29T16:56:02.113Z,5.35
2017-12-29T16:58:34.602Z,5.48
2017-12-29T17:01:07.109Z,5.38
2017-12-29T17:03:39.595Z,5.41
2017-12-29T17:06:12.115Z,5.27
2017-12-29T17:08:44.586Z,5.07
2017-12-29T17:11:17.114Z,5.30
2017-12-29T17:13:49.607Z,5.16
2017-12-29T17:16:22.251Z,4.92
2017-12-29T17:18:54.907Z,5.27
2017-12-29T17:21:27.439Z,4.88
2017-12-29T17:23:59.947Z,4.86
2017-12-29T17:26:33.134Z,5.06
2017-12-29T17:29:05.637Z,4.90
2017-12-29T17:31:38.156Z,4.94
2017-12-29T17:34:10.640Z,4.95
2017-12-29T17:36:43.128Z,5.23
2017-12-29T17:39:15.618Z,5.13
2017-12-29T17:41:48.128Z,5.13
2017-12-29T17:44:20.611Z,5.20
2017-12-29T17:46:53.114Z,5.32
2017-12-29T17:49:26.623Z,4.88
2017-12-29T17:51:59.135Z,5.01
2017-12-29T17:54:32.091Z,5.02
2017-12-29T17:57:04.592Z,5.09
2017-12-29T17:59:37.071Z,5.25
2017-12-29T18:02:09.579Z,5.11
2017-12-29T18:04:42.072Z,5.03
2017-12-29T18:07:14.585Z,5.22
2017-12-29T18:09:47.063Z,5.20
2017-12-29T18:12:19.581Z,5.22
2017-12-29T18:14:52.068Z,5.15
2017-12-29T18:17:24.602Z,5.08
2017-12-29T18:19:57.099Z,5.05
2017-12-29T18:22:29.612Z,5.07
2017-12-29T18:25:02.112Z,5.18
2017-12-29T18:27:34.624Z,4.89
2017-12-29T18:32:45.972Z,4.89
2017-12-29T18:35:18.471Z,4.92
2017-12-29T18:37:50.963Z,4.90
2017-12-29T18:40:23.443Z,4.89
2017-12-29T18:42:55.942Z,4.86
2017-12-29T18:45:28.435Z,4.88
2017-12-29T18:48:01.178Z,4.96
2017-12-29T18:50:33.663Z,4.83
2017-12-29T18:53:06.155Z,4.73
2017-12-29T18:55:38.639Z,4.94
2017-12-29T18:58:11.191Z,4.77
2017-12-29T19:00:43.715Z,4.78
2017-12-29T19:03:16.219Z,4.76
2017-12-29T19:05:48.693Z,4.47
2017-12-29T19:08:21.183Z,4.84
2017-12-29T19:10:53.664Z,4.49
2017-12-29T19:13:26.165Z,4.54
2017-12-29T19:15:58.662Z,4.53
2017-12-29T19:18:31.177Z,4.77
2017-12-29T19:21:03.656Z,4.72
2017-12-29T19:23:36.159Z,4.64
2017-12-29T19:26:08.648Z,4.82
2017-12-29T19:28:41.164Z,4.60
2017-12-29T19:31:13.636Z,4.54
2017-12-29T19:33:46.149Z,4.89
2017-12-29T19:36:18.638Z,4.99
2017-12-29T19:38:51.170Z,4.54
2017-12-29T19:41:23.683Z,4.36
2017-12-29T19:43:56.221Z,4.42
2017-12-29T19:49:07.448Z,4.65
2017-12-29T19:51:40.898Z,4.62
2017-12-29T19:54:13.384Z,4.56
2017-12-29T19:56:45.901Z,4.35
2017-12-29T19:59:18.416Z,4.54
2017-12-29T20:01:50.923Z,4.70
2017-12-29T20:04:23.412Z,4.75
2017-12-29T20:06:55.952Z,4.61
2017-12-29T20:09:28.443Z,4.39
2017-12-29T20:12:01.085Z,4.17
2017-12-29T20:14:33.576Z,4.43
2017-12-29T20:17:06.074Z,4.41
2017-12-29T20:19:38.593Z,4.55
2017-12-29T20:22:11.107Z,4.50
2017-12-29T20:24:43.578Z,4.34
2017-12-29T20:27:16.077Z,4.64
2017-12-29T20:29:48.553Z,4.73
2017-12-29T20:32:21.063Z,4.65
2017-12-29T20:34:53.556Z,4.56
2017-12-29T20:37:26.055Z,4.60
2017-12-29T20:39:58.527Z,4.64
2017-12-29T20:42:31.024Z,4.56
2017-12-29T20:45:06.959Z,4.39
2017-12-29T20:47:39.470Z,4.50
2017-12-29T20:50:11.957Z,4.51
2017-12-29T20:52:44.456Z,4.52
2017-12-29T20:55:16.943Z,4.43
2017-12-29T20:57:50.471Z,4.58
2017-12-29T21:00:22.957Z,4.73
2017-12-29T21:02:55.471Z,4.64
2017-12-29T21:05:27.953Z,4.54
2017-12-29T21:08:00.457Z,4.55
2017-12-29T21:10:32.945Z,4.53
2017-12-29T21:13:05.444Z,4.53
2017-12-29T21:15:37.935Z,4.36
2017-12-29T21:18:10.447Z,4.43
2017-12-29T21:20:43.873Z,4.63
2017-12-29T21:23:16.384Z,4.34
2017-12-29T21:25:48.871Z,4.44
2017-12-29T21:28:21.373Z,4.51
2017-12-29T21:30:53.849Z,4.38
2017-12-29T21:33:26.349Z,4.42
2017-12-29T21:35:58.839Z,4.54
2017-12-29T21:38:31.326Z,4.68
2017-12-29T21:41:03.805Z,4.57
2017-12-29T21:43:36.315Z,4.55
2017-12-29T21:46:08.791Z,4.39
2017-12-29T21:48:41.955Z,4.47
2017-12-29T21:51:14.444Z,4.26
2017-12-29T21:53:46.940Z,4.48
2017-12-29T21:56:19.428Z,4.52
2017-12-29T21:58:51.915Z,4.45
2017-12-29T22:01:24.418Z,4.48
2017-12-29T22:03:57.175Z,4.49
2017-12-29T22:06:29.664Z,4.46
2017-12-29T22:09:02.168Z,4.50
2017-12-29T22:11:34.688Z,4.36
2017-12-29T22:14:07.187Z,4.32
2017-12-29T22:16:39.665Z,4.40
2017-12-29T22:19:12.889Z,4.50
2017-12-29T22:21:45.373Z,4.62
2017-12-29T22:24:17.889Z,4.62
2017-12-29T22:26:50.456Z,4.64
2017-12-29T22:29:22.948Z,4.51
2017-12-29T22:31:55.444Z,4.64
2017-12-29T22:34:28.986Z,4.62
2017-12-29T22:37:01.468Z,4.50
2017-12-29T22:39:33.968Z,4.61
2017-12-29T22:42:06.546Z,4.50
2017-12-29T22:44:39.033Z,4.51
2017-12-29T22:47:12.603Z,4.74
2017-12-29T22:49:45.086Z,4.64
2017-12-29T22:52:17.590Z,4.75
2017-12-29T22:54:50.074Z,4.96
2017-12-29T22:57:22.554Z,4.29
2017-12-29T22:59:55.054Z,4.43
2017-12-29T23:02:27.552Z,4.35
2017-12-29T23:05:00.059Z,4.58
2017-12-29T23:07:32.549Z,4.73
2017-12-29T23:10:05.087Z,4.81
2017-12-29T23:12:37.565Z,4.72
2017-12-29T23:15:10.959Z,4.62
2017-12-29T23:17:43.441Z,4.51
2017-12-29T23:20:15.918Z,4.75
2017-12-29T23:22:48.423Z,4.60
2017-12-29T23:25:20.905Z,4.50
2017-12-29T23:27:53.403Z,4.08
2017-12-29T23:30:25.885Z,4.81
2017-12-29T23:32:58.365Z,4.99
2017-12-29T23:35:30.873Z,4.88
2017-12-29T23:38:03.425Z,4.99
2017-12-29T23:40:36.129Z,5.02
2017-12-29T23:43:09.628Z,5.16
2017-12-29T23:45:42.124Z,4.73
2017-12-29T23:48:14.618Z,4.74
2017-12-29T23:50:47.112Z,4.93
2017-12-29T23:53:19.649Z,5.15
2017-12-29T23:55:52.134Z,5.07
2017-12-29T23:58:24.631Z,4.96
